DMAD Reservoir




Date 2017 Reservoir Capacity (AF) 2017 Hourly Avg. Stream Stage (ft) 2017 Reservoir Outflow (cfs) 2017 Reservoir Gate 1 Height (ft) 2017 Reservoir Gate 2 Height (ft) 2017 Reservoir Gate 3 Height (ft) 2017 Stream Flow (cfs) 2017 Stream Conductivity (ppm) 2017 Battery Voltage (V) 2017 Reservoir Height (ft) 2017 Canal Flow (cfs) 2017 Canal Height (ft) 2017 Canal Flow 2 (ft)
12/01/2017 1,052 0 0.00 0.00 0.00 0.00 0.00 13.15 52.36 0.00 0.00
12/02/2017 1,156 0 0.00 0.00 0.00 0.00 0.00 13.16 52.74 0.00 0.00
12/03/2017 1,337 0 0.00 0.00 0.00 0.00 0.00 12.86 53.40 0.00 0.00
12/04/2017 1,361 0 0.00 0.00 0.00 0.00 0.00 13.16 53.49 0.00 0.00
12/05/2017 1,375 0 0.00 0.00 0.00 0.00 0.00 13.16 53.54 0.00 0.00
12/06/2017 1,411 0 0.00 0.00 0.00 0.00 0.00 13.21 53.67 0.00 0.00
12/07/2017 1,435 0 0.00 0.00 0.00 0.00 0.00 13.19 53.76 0.00 0.00
12/08/2017 1,441 0 0.00 0.00 0.00 0.00 0.00 13.20 53.78 0.00 0.00
12/09/2017 1,452 0 0.00 0.00 0.00 0.00 0.00 13.21 53.82 0.00 0.00
12/10/2017 1,454 0 0.00 0.00 0.00 0.00 0.00 13.20 53.83 0.00 0.00
12/11/2017 1,479 0 0.00 0.00 0.00 0.00 0.00 13.20 53.92 0.00 0.00
12/12/2017 1,485 0 0.00 0.00 0.00 0.00 0.00 13.20 53.94 0.00 0.00
12/13/2017 1,487 0 0.00 0.00 0.00 0.00 0.00 13.08 53.95 0.00 0.00
12/14/2017 1,498 0 0.00 0.00 0.00 0.00 0.00 13.16 53.99 0.00 0.00
12/15/2017 1,577 0 0.00 0.00 0.00 0.00 0.00 13.17 54.00 0.00 0.00
12/16/2017 1,577 0 0.00 0.00 0.00 0.00 0.00 12.74 54.00 0.00 0.00
12/17/2017 1,510 0 0.00 0.00 0.00 0.00 0.00 12.82 54.02 0.00 0.00
12/18/2017 1,522 0 0.00 0.00 0.00 0.00 0.00 13.12 54.05 0.00 0.00
12/19/2017 1,535 0 0.00 0.00 0.00 0.00 0.00 13.20 54.08 0.00 0.00
12/20/2017 1,573 0 0.00 0.00 0.00 0.00 0.00 12.90 54.17 0.00 0.00
12/21/2017 1,578 0 0.00 0.00 0.00 0.00 0.00 13.01 54.18 0.00 0.00
12/22/2017 1,590 0 0.00 0.00 0.00 0.00 0.00 13.19 54.21 0.00 0.00
12/23/2017 1,595 0 0.00 0.00 0.00 0.00 0.00 12.71 54.22 0.00 0.00
12/24/2017 1,616 0 0.00 0.00 0.00 0.00 0.00 12.75 54.27 0.00 0.00
12/25/2017 1,620 0 0.00 0.00 0.00 0.00 0.00 12.86 54.28 0.00 0.00
12/26/2017 1,624 0 0.00 0.00 0.00 0.00 0.00 12.92 54.29 0.00 0.00
12/27/2017 1,637 0 0.00 0.00 0.00 0.00 0.00 13.05 54.32 0.00 0.00
12/28/2017 1,913 0 0.00 0.00 0.00 0.00 0.00 13.08 54.97 0.00 0.00
12/29/2017 2,206 0 0.00 0.00 0.00 0.00 0.00 13.02 55.72 0.00 0.00
12/30/2017 2,229 0 0.00 0.00 0.00 0.00 0.00 12.76 55.78 0.00 0.00
12/31/2017 2,233 0 0.00 0.00 0.00 0.00 0.00 12.82 55.79 0.00 0.00
Average 0 0.00 0.00
Maximum 0 0.00 0.00
Minimum 0 0.00 0.00
Total Volume (AF) 0 0.00 0.00